Time;durP1;ratioP1;P1;durP2;ratioP2;P2;SDS_P1;SDS_P2;PMS_P1;PMS_P2;Temp;Humidity;BMP_temperature;BMP_pressure;BME280_temperature;BME280_humidity;BME280_pressure;Samples;Min_cycle;Max_cycle;Signal;HPM_P1;HPM_P2
2021/07/26 04:35:27;;;;;;;28.95;19.88;;;;;;;17.58;75.91;99512.81;4985907;28;105996;-65
2021/07/26 04:37:53;;;;;;;28.33;20.55;;;;;;;17.67;76.11;99514.09;4987264;28;106390;-65
2021/07/26 04:40:18;;;;;;;28.08;21.40;;;;;;;17.78;76.29;99517.84;4984037;28;106178;-66
2021/07/26 04:42:44;;;;;;;33.10;21.38;;;;;;;17.91;76.44;99506.88;4984094;28;106848;-65
2021/07/26 04:45:11;;;;;;;24.73;20.38;;;;;;;18.06;76.40;99513.66;4984560;28;105909;-65
2021/07/26 04:47:37;;;;;;;23.85;20.77;;;;;;;18.18;76.40;99517.16;4985109;28;106278;-65
2021/07/26 04:50:03;;;;;;;26.00;19.67;;;;;;;18.33;76.54;99513.13;4984754;28;106233;-65
2021/07/26 04:52:28;;;;;;;28.23;19.02;;;;;;;18.46;76.32;99518.25;4984594;28;106006;-65
2021/07/26 04:54:54;;;;;;;23.33;18.90;;;;;;;18.57;75.76;99524.69;4983849;28;105921;-65
2021/07/26 04:57:19;;;;;;;25.08;20.67;;;;;;;18.64;75.79;99519.97;4985407;28;105865;-65
2021/07/26 04:59:44;;;;;;;26.52;21.15;;;;;;;18.75;75.84;99520.97;4985253;28;105948;-66
2021/07/26 05:02:10;;;;;;;26.00;19.15;;;;;;;18.84;75.83;99519.53;4984277;28;117579;-66
2021/07/26 05:04:35;;;;;;;21.73;18.38;;;;;;;18.93;75.43;99522.69;4984743;28;106061;-65
2021/07/26 05:07:01;;;;;;;27.27;19.58;;;;;;;19.02;75.48;99523.13;4985285;28;106064;-65
2021/07/26 05:09:30;;;;;;;25.42;20.63;;;;;;;19.11;75.33;99519.81;4983081;28;106177;-63
2021/07/26 05:12:02;;;;;;;26.27;20.38;;;;;;;19.15;74.82;99525.53;4984110;28;106479;-64
2021/07/26 05:14:28;;;;;;;23.42;19.27;;;;;;;19.24;74.91;99523.25;4984076;28;105909;-63
2021/07/26 05:16:54;;;;;;;25.55;20.02;;;;;;;19.36;74.97;99515.91;4984764;28;105974;-62
2021/07/26 05:19:19;;;;;;;25.90;20.08;;;;;;;19.48;74.75;99520.41;4984121;28;106153;-63
2021/07/26 05:21:44;;;;;;;28.52;20.58;;;;;;;19.56;74.55;99525.38;4983530;28;106337;-65
2021/07/26 05:24:10;;;;;;;22.75;19.25;;;;;;;19.62;74.06;99522.53;4983889;28;106184;-64
2021/07/26 05:26:35;;;;;;;30.27;20.35;;;;;;;19.68;74.05;99523.41;4984713;28;106035;-65
2021/07/26 05:29:00;;;;;;;24.88;19.67;;;;;;;19.75;73.98;99529.50;4984347;28;106098;-65
2021/07/26 05:31:26;;;;;;;28.95;19.45;;;;;;;19.81;73.74;99533.13;4984068;28;105920;-64
2021/07/26 05:33:51;;;;;;;24.80;18.15;;;;;;;19.87;73.74;99537.50;4983242;28;116384;-64
2021/07/26 05:36:16;;;;;;;22.77;18.73;;;;;;;19.93;73.55;99536.53;4984714;28;105898;-64
2021/07/26 05:38:42;;;;;;;25.73;20.17;;;;;;;20.00;73.35;99540.94;4984206;28;106329;-64
2021/07/26 05:41:08;;;;;;;25.15;19.10;;;;;;;20.04;73.12;99542.91;4983419;28;109122;-64
2021/07/26 05:43:34;;;;;;;25.10;18.38;;;;;;;20.10;73.46;99543.78;4983989;28;106202;-64
2021/07/26 05:46:00;;;;;;;24.95;18.40;;;;;;;20.14;72.95;99547.63;4975834;28;105955;-64
2021/07/26 05:48:25;;;;;;;26.02;18.67;;;;;;;20.19;72.64;99558.53;4970445;28;106201;-64
2021/07/26 05:50:51;;;;;;;20.77;17.58;;;;;;;20.23;72.49;99551.56;4954696;28;105880;-65
2021/07/26 05:53:16;;;;;;;25.42;19.17;;;;;;;20.26;72.13;99555.66;4958714;28;105975;-64
2021/07/26 05:55:41;;;;;;;26.75;19.65;;;;;;;20.28;71.92;99562.44;4963383;28;106001;-64
2021/07/26 05:58:07;;;;;;;24.73;18.60;;;;;;;20.27;71.70;99565.38;4950628;28;106225;-64
2021/07/26 06:00:36;;;;;;;26.00;19.40;;;;;;;20.25;71.61;99573.75;4950497;28;106074;-64
2021/07/26 06:03:02;;;;;;;23.73;18.92;;;;;;;20.22;71.66;99570.75;4950728;28;106036;-64
2021/07/26 06:05:28;;;;;;;25.75;18.88;;;;;;;20.22;71.46;99566.13;4951659;28;106050;-66
2021/07/26 06:07:54;;;;;;;22.45;18.73;;;;;;;20.25;71.38;99564.81;4950961;28;106043;-64
2021/07/26 06:10:19;;;;;;;30.65;17.70;;;;;;;20.25;71.43;99564.81;4959443;28;106784;-63
2021/07/26 06:12:45;;;;;;;23.27;17.83;;;;;;;20.34;71.37;99567.91;4970235;28;106056;-63
2021/07/26 06:15:10;;;;;;;24.65;18.05;;;;;;;20.39;71.32;99568.78;4970819;28;105891;-64
2021/07/26 06:17:36;;;;;;;23.75;18.08;;;;;;;20.43;70.79;99561.81;4970016;28;105902;-63
2021/07/26 06:20:03;;;;;;;24.35;18.70;;;;;;;20.51;70.60;99568.69;4969358;28;105966;-64
2021/07/26 06:22:29;;;;;;;20.77;17.30;;;;;;;20.57;70.72;99573.09;4969795;28;106115;-63
2021/07/26 06:24:54;;;;;;;23.20;17.52;;;;;;;20.71;70.58;99575.44;4970483;28;105918;-65
2021/07/26 06:27:20;;;;;;;22.02;16.75;;;;;;;20.82;70.26;99568.25;4969945;28;106278;-65
2021/07/26 06:29:47;;;;;;;19.85;16.40;;;;;;;20.93;70.38;99570.84;4969638;28;106321;-64
2021/07/26 06:32:12;;;;;;;21.08;17.52;;;;;;;21.06;69.65;99580.44;4968839;28;106238;-64
2021/07/26 06:34:38;;;;;;;22.20;17.92;;;;;;;21.25;69.42;99577.38;4969990;28;106107;-63
2021/07/26 06:37:04;;;;;;;23.90;19.15;;;;;;;21.43;69.40;99584.31;4969423;28;106342;-65
2021/07/26 06:39:29;;;;;;;23.27;17.17;;;;;;;21.64;69.10;99591.59;4969475;28;105864;-64
2021/07/26 06:41:55;;;;;;;24.50;18.17;;;;;;;21.78;68.12;99591.97;4969084;28;105998;-65
2021/07/26 06:44:20;;;;;;;22.92;17.02;;;;;;;21.91;67.73;99584.47;4968856;28;105877;-65
2021/07/26 06:46:45;;;;;;;27.58;20.05;;;;;;;22.06;67.47;99587.31;4969928;28;106147;-66
2021/07/26 06:49:10;;;;;;;22.50;18.25;;;;;;;22.25;67.15;99598.56;4969381;28;106562;-66
2021/07/26 06:51:36;;;;;;;22.00;17.40;;;;;;;22.47;67.12;99597.59;4968840;28;106299;-66
2021/07/26 06:54:01;;;;;;;22.55;17.23;;;;;;;22.71;67.19;99591.75;4969739;28;105780;-65
2021/07/26 06:56:26;;;;;;;24.45;17.27;;;;;;;22.94;66.16;99595.91;4968978;28;107066;-66
2021/07/26 06:58:52;;;;;;;22.45;17.40;;;;;;;23.12;65.51;99602.72;4968562;28;105807;-65
2021/07/26 07:01:18;;;;;;;21.27;16.98;;;;;;;23.36;65.77;99603.09;4969301;28;105788;-66
2021/07/26 07:03:45;;;;;;;21.35;17.98;;;;;;;23.64;65.08;99599.00;4968907;28;106064;-65
2021/07/26 07:06:15;;;;;;;18.40;16.27;;;;;;;23.83;64.69;99603.91;4969068;28;106369;-65
2021/07/26 07:08:41;;;;;;;;;;;;;;;23.99;64.13;99605.56;4969543;28;105800;-65
2021/07/26 07:11:14;;;;;;;25.13;17.65;;;;;;;24.16;63.56;99601.75;4968738;28;106777;-66
2021/07/26 07:13:47;;;;;;;19.08;15.05;;;;;;;24.32;63.03;99594.38;4968232;28;105918;-67
2021/07/26 07:16:17;;;;;;;18.25;15.60;;;;;;;24.44;62.13;99592.16;4969015;28;106617;-65
2021/07/26 07:18:43;;;;;;;24.48;18.25;;;;;;;24.53;61.25;99591.56;4968389;28;107571;-66
2021/07/26 07:21:24;;;;;;;18.52;16.52;;;;;;;24.66;60.77;99593.75;4968371;28;105935;-66
2021/07/26 07:23:50;;;;;;;20.20;16.77;;;;;;;24.83;60.25;99591.47;4969618;28;106038;-65
2021/07/26 07:26:17;;;;;;;22.00;15.93;;;;;;;25.03;60.05;99600.66;4968753;28;106021;-65
2021/07/26 07:28:44;;;;;;;20.88;16.63;;;;;;;25.11;59.17;99602.78;4968279;28;105908;-65
2021/07/26 07:31:09;;;;;;;19.27;15.05;;;;;;;25.16;59.19;99610.09;4966949;28;105981;-67
2021/07/26 07:33:35;;;;;;;18.92;14.93;;;;;;;25.27;58.08;99617.09;4968636;28;106212;-64
2021/07/26 07:52:05;;;;;;;26.65;18.92;;;;;;;24.32;57.88;99614.22;5007062;28;106616;-64
2021/07/26 07:54:30;;;;;;;21.70;16.45;;;;;;;24.21;57.37;99619.94;5005046;28;106321;-63
2021/07/26 07:56:56;;;;;;;18.92;16.67;;;;;;;24.23;57.95;99621.31;5004879;28;106229;-64
2021/07/26 07:59:21;;;;;;;19.65;17.15;;;;;;;24.35;57.88;99628.38;5004390;28;111999;-64
2021/07/26 08:01:47;;;;;;;19.23;17.02;;;;;;;24.43;58.21;99633.25;5004366;28;106053;-64
2021/07/26 08:04:15;;;;;;;23.08;17.05;;;;;;;24.54;57.73;99621.25;5005328;28;106104;-64
2021/07/26 08:06:43;;;;;;;20.35;18.17;;;;;;;24.64;57.81;99625.88;5004343;28;106253;-63
2021/07/26 08:09:08;;;;;;;21.65;18.10;;;;;;;24.73;56.94;99631.53;5004558;28;105872;-63
2021/07/26 08:11:33;;;;;;;22.40;16.55;;;;;;;24.90;57.71;99632.03;5003969;28;109804;-63
2021/07/26 08:13:58;;;;;;;20.42;15.82;;;;;;;25.23;56.90;99628.88;5005175;28;105855;-63
2021/07/26 08:16:24;;;;;;;19.20;16.52;;;;;;;25.53;57.25;99627.06;5004196;28;106366;-64
2021/07/26 08:18:49;;;;;;;20.17;16.63;;;;;;;25.65;55.61;99632.97;5004423;28;105777;-63
2021/07/26 08:21:15;;;;;;;20.42;17.50;;;;;;;25.65;55.35;99638.44;5003685;28;106008;-64
2021/07/26 08:23:40;;;;;;;20.38;16.58;;;;;;;25.65;55.07;99646.63;5005057;28;106069;-61
2021/07/26 08:26:06;;;;;;;22.08;15.60;;;;;;;25.61;55.12;99653.75;5004179;28;106301;-61
2021/07/26 08:28:31;;;;;;;18.75;16.77;;;;;;;25.78;55.17;99653.31;5003851;28;105959;-61
2021/07/26 08:30:57;;;;;;;19.38;15.95;;;;;;;25.93;54.97;99645.03;5003743;28;111014;-61
2021/07/26 08:33:22;;;;;;;18.48;16.48;;;;;;;26.22;54.92;99649.72;5004717;28;105960;-61
2021/07/26 08:35:47;;;;;;;18.52;16.63;;;;;;;26.54;53.81;99652.94;5003960;28;106130;-61
2021/07/26 08:38:13;;;;;;;20.35;16.88;;;;;;;26.79;52.49;99649.13;5003615;28;105921;-63
2021/07/26 08:40:38;;;;;;;17.95;16.05;;;;;;;27.05;52.43;99649.63;5003527;28;105884;-62
2021/07/26 08:43:07;;;;;;;18.63;15.68;;;;;;;27.63;51.58;99651.28;5004419;28;105983;-61
2021/07/26 08:45:33;;;;;;;19.07;16.37;;;;;;;28.11;50.85;99663.13;5004144;28;105785;-61
2021/07/26 08:48:07;;;;;;;20.42;14.82;;;;;;;28.46;49.96;99658.09;5003618;28;105915;-61
2021/07/26 08:50:33;;;;;;;17.50;15.68;;;;;;;28.96;49.18;99668.41;5003533;28;106241;-61
2021/07/26 08:53:02;;;;;;;19.73;16.83;;;;;;;29.18;48.09;99667.66;5003861;28;106115;-61
2021/07/26 08:55:29;;;;;;;18.77;16.08;;;;;;;29.38;47.30;99675.44;4983887;28;105949;-63
2021/07/26 08:57:55;;;;;;;16.75;15.00;;;;;;;29.27;46.88;99662.28;4983734;28;106060;-63
2021/07/26 09:00:21;;;;;;;17.25;14.82;;;;;;;29.50;46.97;99660.41;4984039;28;106144;-62
2021/07/26 09:02:46;;;;;;;18.73;15.23;;;;;;;29.70;46.16;99648.94;4975172;28;105847;-62
2021/07/26 09:05:13;;;;;;;18.88;14.38;;;;;;;29.49;45.75;99653.28;4971031;28;106598;-62
2021/07/26 09:07:43;;;;;;;18.50;15.02;;;;;;;29.64;46.22;99644.69;4970335;28;106862;-62
2021/07/26 09:10:16;;;;;;;18.92;14.73;;;;;;;29.69;44.93;99641.81;4978084;28;106387;-62
2021/07/26 09:12:43;;;;;;;17.30;15.43;;;;;;;29.87;45.55;99647.47;4991007;28;106522;-63
2021/07/26 09:15:29;;;;;;;17.50;14.23;;;;;;;30.36;44.64;99653.88;4990149;28;106633;-63
2021/07/26 09:17:59;;;;;;;19.95;16.15;;;;;;;30.65;44.38;99649.81;4989417;28;106637;-63
2021/07/26 09:20:28;;;;;;;17.27;15.15;;;;;;;31.14;43.76;99649.78;4988329;28;105882;-62
2021/07/26 09:22:56;;;;;;;16.20;14.52;;;;;;;31.31;42.40;99653.69;4990858;28;105930;-62
2021/07/26 09:25:29;;;;;;;19.40;14.75;;;;;;;31.19;42.06;99648.81;4990009;28;106242;-62
2021/07/26 09:28:20;;;;;;;15.55;13.95;;;;;;;31.10;41.54;99643.31;4989921;28;105963;-63
2021/07/26 09:30:53;;;;;;;17.00;13.07;;;;;;;31.29;42.17;99648.50;4975129;28;106044;-63
2021/07/26 09:33:21;;;;;;;15.73;14.13;;;;;;;31.55;41.61;99647.72;4970635;28;105865;-66
2021/07/26 09:36:08;;;;;;;15.88;14.00;;;;;;;31.74;40.76;99652.91;4969877;28;106271;-65
2021/07/26 09:38:34;;;;;;;15.82;14.23;;;;;;;31.61;39.91;99657.44;4969271;28;108003;-66
2021/07/26 09:41:01;;;;;;;17.08;13.90;;;;;;;31.24;40.61;99640.41;4984468;28;106027;-65
2021/07/26 09:43:27;;;;;;;15.05;13.45;;;;;;;31.24;40.27;99654.16;4990187;28;106010;-65
2021/07/26 09:45:54;;;;;;;14.60;13.13;;;;;;;31.00;41.19;99655.41;4989689;28;106288;-65
2021/07/26 09:48:22;;;;;;;14.65;13.15;;;;;;;31.44;41.52;99649.16;4989343;28;105926;-66
2021/07/26 09:50:49;;;;;;;17.20;12.32;;;;;;;31.97;40.78;99655.44;4989168;28;106032;-65
2021/07/26 09:53:23;;;;;;;13.73;12.38;;;;;;;32.58;39.64;99649.75;4990003;28;106258;-65
2021/07/26 09:55:50;;;;;;;14.75;12.75;;;;;;;32.87;38.75;99646.22;4989799;28;106201;-65
2021/07/26 09:58:17;;;;;;;13.68;12.38;;;;;;;32.82;38.08;99648.38;4989304;28;106587;-65
2021/07/26 10:00:43;;;;;;;15.27;13.68;;;;;;;32.96;37.06;99657.22;4981361;28;106097;-65
2021/07/26 10:03:14;;;;;;;16.83;14.05;;;;;;;32.56;37.37;99652.84;4970585;28;106305;-66
2021/07/26 10:05:41;;;;;;;14.85;13.35;;;;;;;32.72;37.71;99655.91;4969682;28;106237;-66
2021/07/26 10:08:07;;;;;;;14.43;12.75;;;;;;;33.06;37.38;99653.25;4969174;28;105995;-66
2021/07/26 10:10:37;;;;;;;14.57;13.18;;;;;;;33.12;36.23;99665.72;4979656;28;106097;-66
2021/07/26 10:13:04;;;;;;;14.18;12.52;;;;;;;32.76;37.00;99652.47;4989740;28;105936;-66
2021/07/26 10:15:32;;;;;;;14.15;12.65;;;;;;;33.26;36.45;99659.13;4988928;28;106255;-66
2021/07/26 10:17:58;;;;;;;14.57;13.07;;;;;;;33.59;36.00;99673.00;4988877;28;106537;-66
2021/07/26 10:20:28;;;;;;;15.05;13.45;;;;;;;33.40;35.65;99674.28;4988883;28;106062;-65
2021/07/26 10:23:04;;;;;;;16.45;14.80;;;;;;;33.02;35.90;99672.41;4989321;28;106580;-65
2021/07/26 10:25:35;;;;;;;14.75;13.30;;;;;;;32.86;36.35;99676.91;4989503;28;106380;-65
2021/07/26 10:28:05;;;;;;;15.30;13.55;;;;;;;33.06;37.03;99667.03;4988810;28;107151;-66
2021/07/26 10:30:40;;;;;;;15.10;13.57;;;;;;;33.88;35.79;99665.78;4988636;28;106044;-65
2021/07/26 10:33:06;;;;;;;16.40;13.43;;;;;;;34.61;34.45;99653.25;4989341;28;105850;-66
2021/07/26 10:35:38;;;;;;;15.05;12.98;;;;;;;35.23;33.42;99648.47;4988968;28;106275;-67
2021/07/26 10:38:05;;;;;;;14.75;13.20;;;;;;;35.78;32.32;99661.13;4988040;28;106056;-67
2021/07/26 10:40:32;;;;;;;12.70;11.40;;;;;;;36.06;32.09;99650.84;4988138;28;105899;-66
2021/07/26 10:43:02;;;;;;;14.02;12.70;;;;;;;36.27;31.05;99658.09;4988606;28;105927;-67
2021/07/26 10:45:31;;;;;;;13.45;12.05;;;;;;;36.01;31.21;99651.09;4988532;28;106257;-66
2021/07/26 10:48:29;;;;;;;13.43;12.23;;;;;;;36.19;31.05;99645.22;4987684;28;107484;-67
2021/07/26 10:50:56;;;;;;;13.13;11.80;;;;;;;36.33;31.00;99653.91;4988387;28;106079;-67
2021/07/26 10:53:36;;;;;;;13.48;11.65;;;;;;;36.72;30.59;99650.50;4988953;28;105953;-66
2021/07/26 10:56:07;;;;;;;12.93;11.68;;;;;;;37.17;30.59;99649.16;4988597;28;106157;-66
2021/07/26 10:58:38;;;;;;;13.27;11.90;;;;;;;37.56;29.33;99649.16;4988253;28;106536;-67
2021/07/26 11:01:33;;;;;;;17.00;15.50;;;;;;;37.45;28.91;99650.13;4988641;28;106110;-66
2021/07/26 11:03:59;;;;;;;14.35;12.90;;;;;;;37.05;29.75;99647.28;4989035;28;106092;-66
2021/07/26 11:06:33;;;;;;;15.18;13.40;;;;;;;36.90;29.42;99648.16;4988819;28;106208;-66
2021/07/26 11:09:34;;;;;;;13.07;11.77;;;;;;;36.42;30.00;99642.66;4988324;28;106641;-66
2021/07/26 11:12:02;;;;;;;14.50;13.00;;;;;;;36.43;30.24;99638.72;4988501;28;106012;-66
2021/07/26 11:14:28;;;;;;;13.65;12.25;;;;;;;36.33;31.29;99639.25;4988965;28;105933;-65
2021/07/26 11:16:58;;;;;;;13.15;10.75;;;;;;;36.75;30.94;99628.38;4988432;28;105986;-66
2021/07/26 11:19:49;;;;;;;13.38;12.07;;;;;;;37.14;30.04;99640.72;4988123;28;106408;-65
2021/07/26 11:22:14;;;;;;;14.18;11.70;;;;;;;37.38;29.31;99643.25;4985005;28;105818;-65
2021/07/26 11:25:11;;;;;;;13.07;11.77;;;;;;;36.92;29.57;99631.94;4988713;28;106013;-65
2021/07/26 11:27:37;;;;;;;13.93;12.52;;;;;;;36.89;30.06;99629.88;4987333;28;105837;-65
2021/07/26 11:30:04;;;;;;;13.68;11.27;;;;;;;37.15;29.44;99634.00;4987459;28;106574;-65
2021/07/26 11:32:29;;;;;;;13.45;12.10;;;;;;;37.40;29.09;99632.59;4987342;28;106007;-65
2021/07/26 11:34:59;;;;;;;13.43;11.98;;;;;;;37.37;29.31;99625.00;4988148;28;106380;-65
2021/07/26 11:37:35;;;;;;;13.55;10.68;;;;;;;37.51;29.18;99627.25;4988117;28;105844;-65
2021/07/26 11:40:04;;;;;;;12.35;11.15;;;;;;;37.90;28.69;99618.88;4986639;28;106118;-65
2021/07/26 11:42:34;;;;;;;12.43;11.18;;;;;;;38.21;27.67;99619.00;4987653;28;106109;-66
2021/07/26 11:45:04;;;;;;;12.95;11.55;;;;;;;38.28;27.75;99610.00;4986072;28;106051;-65
2021/07/26 11:47:32;;;;;;;13.27;11.43;;;;;;;37.77;27.55;99609.13;4987512;28;105852;-65
2021/07/26 11:49:58;;;;;;;15.00;12.15;;;;;;;36.94;28.73;99607.41;4986686;28;107190;-66
2021/07/26 11:52:23;;;;;;;13.25;11.95;;;;;;;36.67;28.82;99598.06;4987474;28;106630;-66
2021/07/26 11:54:49;;;;;;;13.18;11.60;;;;;;;36.12;29.34;99593.16;4988198;28;105879;-66
2021/07/26 11:57:14;;;;;;;13.85;12.45;;;;;;;35.59;29.77;99579.50;4987815;28;106100;-72
2021/07/26 11:59:47;;;;;;;12.30;11.18;;;;;;;35.45;30.37;99591.00;4987790;28;105878;-67
2021/07/26 12:02:22;;;;;;;14.07;11.43;;;;;;;35.44;30.44;99583.03;5003810;28;107040;-67
2021/07/26 12:04:47;;;;;;;12.82;11.63;;;;;;;35.63;30.03;99585.94;5008555;28;105846;-66
2021/07/26 12:07:13;;;;;;;13.00;11.70;;;;;;;35.81;30.29;99594.72;5007784;28;106109;-68
2021/07/26 12:09:49;;;;;;;13.05;11.73;;;;;;;36.31;30.03;99588.88;4988565;28;106850;-66
2021/07/26 12:12:15;;;;;;;17.13;12.60;;;;;;;36.68;29.57;99583.03;4987251;28;106178;-66
2021/07/26 12:14:44;;;;;;;14.70;12.05;;;;;;;37.11;29.44;99595.06;4988074;28;105899;-66
2021/07/26 12:17:12;;;;;;;13.68;11.98;;;;;;;37.33;28.96;99599.13;4986698;28;106276;-67
2021/07/26 12:19:42;;;;;;;12.93;11.73;;;;;;;37.67;28.42;99612.47;4986642;28;105979;-66
2021/07/26 12:22:18;;;;;;;13.63;12.02;;;;;;;37.69;28.11;99605.38;4985782;28;106658;-66
2021/07/26 12:24:59;;;;;;;13.32;11.45;;;;;;;37.54;27.88;99607.06;4968101;28;105859;-68
2021/07/26 12:27:31;;;;;;;13.27;11.88;;;;;;;37.63;27.49;99601.28;4967664;28;105945;-66
2021/07/26 12:30:10;;;;;;;14.40;11.15;;;;;;;37.71;27.70;99611.34;4967208;28;106250;-66
2021/07/26 12:32:52;;;;;;;13.45;12.02;;;;;;;37.95;26.89;99600.28;4967017;28;106698;-66
2021/07/26 12:35:17;;;;;;;12.55;11.35;;;;;;;37.97;26.83;99595.94;4976704;28;105972;-66
2021/07/26 12:38:14;;;;;;;13.03;11.50;;;;;;;37.95;26.80;99598.31;4988626;28;106151;-66
2021/07/26 12:40:41;;;;;;;12.65;10.93;;;;;;;37.37;27.02;99600.00;4990307;28;105980;-66
2021/07/26 12:43:27;;;;;;;13.00;11.65;;;;;;;36.97;28.00;99603.91;4989192;28;106062;-66
2021/07/26 12:45:56;;;;;;;12.85;11.55;;;;;;;37.08;28.33;99602.16;4991298;28;105979;-66
2021/07/26 12:48:22;;;;;;;;;;;;;;;37.23;27.76;99599.69;4991142;28;106146;-66
2021/07/26 12:50:48;;;;;;;13.68;11.80;;;;;;;36.68;28.11;99600.47;4990397;28;106706;-66
2021/07/26 12:53:14;;;;;;;13.38;11.95;;;;;;;36.06;28.88;99606.50;4989936;28;106759;-66
2021/07/26 12:55:41;;;;;;;13.10;11.80;;;;;;;35.05;29.42;99602.88;4991201;28;106105;-65
2021/07/26 12:58:08;;;;;;;13.52;11.77;;;;;;;34.31;30.50;99600.97;4990227;28;106107;-66
